sensor_id;sensor_type;location;lat;lon;timestamp;pressure;altitude;pressure_sealevel;temperature;humidity
10115;BME280;5097;43.260;27.812;2023-03-03T00:02:28;100545.59;;;5.29;82.05
10115;BME280;5097;43.260;27.812;2023-03-03T00:05:13;100512.03;;;5.08;81.66
10115;BME280;5097;43.260;27.812;2023-03-03T00:08:00;100546.09;;;5.44;81.43
10115;BME280;5097;43.260;27.812;2023-03-03T00:10:44;100529.44;;;5.12;82.38
10115;BME280;5097;43.260;27.812;2023-03-03T00:13:29;100538.50;;;5.33;81.86
10115;BME280;5097;43.260;27.812;2023-03-03T00:16:18;100544.75;;;5.27;82.40
10115;BME280;5097;43.260;27.812;2023-03-03T00:19:11;100540.84;;;5.45;81.42
10115;BME280;5097;43.260;27.812;2023-03-03T00:21:58;100540.41;;;5.26;81.35
10115;BME280;5097;43.260;27.812;2023-03-03T00:24:42;100538.72;;;5.24;81.91
10115;BME280;5097;43.260;27.812;2023-03-03T00:27:28;100535.00;;;5.34;81.60
10115;BME280;5097;43.260;27.812;2023-03-03T00:30:17;100483.06;;;5.15;80.84
10115;BME280;5097;43.260;27.812;2023-03-03T00:33:11;100525.78;;;5.53;81.21
10115;BME280;5097;43.260;27.812;2023-03-03T00:36:21;100527.69;;;5.80;79.81
10115;BME280;5097;43.260;27.812;2023-03-03T00:39:17;100530.84;;;6.26;79.21
10115;BME280;5097;43.260;27.812;2023-03-03T00:42:08;100487.25;;;6.20;78.43
10115;BME280;5097;43.260;27.812;2023-03-03T00:44:56;100517.22;;;6.43;78.01
10115;BME280;5097;43.260;27.812;2023-03-03T00:47:42;100517.53;;;6.62;77.77
10115;BME280;5097;43.260;27.812;2023-03-03T00:50:31;100520.69;;;6.73;78.40
10115;BME280;5097;43.260;27.812;2023-03-03T00:53:17;100521.59;;;6.72;77.56
10115;BME280;5097;43.260;27.812;2023-03-03T00:56:02;100509.69;;;6.60;76.65
10115;BME280;5097;43.260;27.812;2023-03-03T00:58:46;100506.59;;;6.76;76.84
10115;BME280;5097;43.260;27.812;2023-03-03T01:01:33;100504.47;;;6.30;76.04
10115;BME280;5097;43.260;27.812;2023-03-03T01:04:17;100503.81;;;6.22;76.38
10115;BME280;5097;43.260;27.812;2023-03-03T01:07:00;100493.44;;;6.19;75.45
10115;BME280;5097;43.260;27.812;2023-03-03T01:09:44;100494.78;;;6.32;76.12
10115;BME280;5097;43.260;27.812;2023-03-03T01:12:29;100489.97;;;6.47;75.40
10115;BME280;5097;43.260;27.812;2023-03-03T01:15:14;100488.22;;;6.47;74.99
10115;BME280;5097;43.260;27.812;2023-03-03T01:17:58;100483.53;;;6.29;75.80
10115;BME280;5097;43.260;27.812;2023-03-03T01:20:42;100475.78;;;6.24;76.51
10115;BME280;5097;43.260;27.812;2023-03-03T01:23:26;100482.34;;;6.39;75.46
10115;BME280;5097;43.260;27.812;2023-03-03T01:26:10;100468.63;;;6.59;75.63
10115;BME280;5097;43.260;27.812;2023-03-03T01:28:55;100458.78;;;6.66;74.58
10115;BME280;5097;43.260;27.812;2023-03-03T01:31:39;100472.34;;;6.79;75.07
10115;BME280;5097;43.260;27.812;2023-03-03T01:34:23;100468.34;;;6.95;75.44
10115;BME280;5097;43.260;27.812;2023-03-03T01:37:07;100474.19;;;6.77;74.15
10115;BME280;5097;43.260;27.812;2023-03-03T01:39:51;100459.69;;;6.36;76.01
10115;BME280;5097;43.260;27.812;2023-03-03T01:42:35;100451.56;;;6.73;75.46
10115;BME280;5097;43.260;27.812;2023-03-03T01:45:22;100465.38;;;6.78;75.43
10115;BME280;5097;43.260;27.812;2023-03-03T01:48:09;100458.06;;;6.31;75.09
10115;BME280;5097;43.260;27.812;2023-03-03T01:51:00;100453.09;;;6.23;75.94
10115;BME280;5097;43.260;27.812;2023-03-03T01:53:48;100458.72;;;6.39;75.88
10115;BME280;5097;43.260;27.812;2023-03-03T01:56:32;100448.63;;;5.95;77.14
10115;BME280;5097;43.260;27.812;2023-03-03T01:59:19;100440.50;;;6.04;77.06
10115;BME280;5097;43.260;27.812;2023-03-03T02:02:05;100400.94;;;5.81;77.21
10115;BME280;5097;43.260;27.812;2023-03-03T02:04:49;100398.78;;;5.65;76.25
10115;BME280;5097;43.260;27.812;2023-03-03T02:07:34;100452.59;;;5.77;77.48
10115;BME280;5097;43.260;27.812;2023-03-03T02:10:20;100456.72;;;6.17;77.48
10115;BME280;5097;43.260;27.812;2023-03-03T02:13:04;100459.28;;;6.20;76.82
10115;BME280;5097;43.260;27.812;2023-03-03T02:15:48;100456.13;;;6.37;75.99
10115;BME280;5097;43.260;27.812;2023-03-03T02:18:33;100451.91;;;6.62;76.03
10115;BME280;5097;43.260;27.812;2023-03-03T02:21:19;100453.38;;;6.70;74.89
10115;BME280;5097;43.260;27.812;2023-03-03T02:24:08;100433.66;;;6.57;76.58
10115;BME280;5097;43.260;27.812;2023-03-03T02:26:54;100455.25;;;6.94;75.99
10115;BME280;5097;43.260;27.812;2023-03-03T02:29:39;100449.59;;;7.06;75.10
10115;BME280;5097;43.260;27.812;2023-03-03T02:32:22;100445.50;;;6.97;74.33
10115;BME280;5097;43.260;27.812;2023-03-03T02:35:29;100452.25;;;7.06;75.10
10115;BME280;5097;43.260;27.812;2023-03-03T02:38:19;100454.56;;;7.15;74.25
10115;BME280;5097;43.260;27.812;2023-03-03T02:41:10;100448.44;;;7.15;74.42
10115;BME280;5097;43.260;27.812;2023-03-03T02:44:02;100448.22;;;7.21;74.81
10115;BME280;5097;43.260;27.812;2023-03-03T02:46:48;100448.13;;;7.24;74.13
10115;BME280;5097;43.260;27.812;2023-03-03T02:49:33;100443.06;;;7.18;73.76
10115;BME280;5097;43.260;27.812;2023-03-03T02:52:17;100446.81;;;7.11;73.14
10115;BME280;5097;43.260;27.812;2023-03-03T02:55:04;100448.97;;;6.99;73.74
10115;BME280;5097;43.260;27.812;2023-03-03T02:57:48;100451.16;;;7.12;74.64
10115;BME280;5097;43.260;27.812;2023-03-03T03:00:34;100450.75;;;6.97;73.88
10115;BME280;5097;43.260;27.812;2023-03-03T03:03:17;100441.63;;;7.09;73.93
10115;BME280;5097;43.260;27.812;2023-03-03T03:06:03;100410.59;;;6.67;74.85
10115;BME280;5097;43.260;27.812;2023-03-03T03:08:46;100442.75;;;7.02;74.85
10115;BME280;5097;43.260;27.812;2023-03-03T03:11:31;100421.38;;;6.86;74.43
10115;BME280;5097;43.260;27.812;2023-03-03T03:14:18;100437.50;;;7.00;74.98
10115;BME280;5097;43.260;27.812;2023-03-03T03:17:03;100436.91;;;6.92;74.37
10115;BME280;5097;43.260;27.812;2023-03-03T03:19:47;100433.28;;;6.96;75.55
10115;BME280;5097;43.260;27.812;2023-03-03T03:22:31;100434.56;;;7.10;75.00
10115;BME280;5097;43.260;27.812;2023-03-03T03:25:15;100421.06;;;6.95;74.59
10115;BME280;5097;43.260;27.812;2023-03-03T03:27:59;100429.91;;;6.93;74.21
10115;BME280;5097;43.260;27.812;2023-03-03T03:30:43;100433.50;;;6.90;73.98
10115;BME280;5097;43.260;27.812;2023-03-03T03:33:29;100441.44;;;6.87;74.19
10115;BME280;5097;43.260;27.812;2023-03-03T03:36:13;100437.38;;;6.78;74.30
10115;BME280;5097;43.260;27.812;2023-03-03T03:38:57;100427.13;;;6.70;74.87
10115;BME280;5097;43.260;27.812;2023-03-03T03:41:45;100424.75;;;6.34;73.66
10115;BME280;5097;43.260;27.812;2023-03-03T03:44:29;100431.88;;;6.58;74.41
10115;BME280;5097;43.260;27.812;2023-03-03T03:47:12;100424.00;;;6.59;73.72
10115;BME280;5097;43.260;27.812;2023-03-03T03:49:58;100426.84;;;6.23;74.62
10115;BME280;5097;43.260;27.812;2023-03-03T03:52:44;100417.44;;;6.16;76.24
10115;BME280;5097;43.260;27.812;2023-03-03T03:55:28;100418.88;;;6.26;76.96
10115;BME280;5097;43.260;27.812;2023-03-03T03:58:13;100414.47;;;6.28;75.67
10115;BME280;5097;43.260;27.812;2023-03-03T04:01:03;100411.16;;;6.22;75.33
10115;BME280;5097;43.260;27.812;2023-03-03T04:03:50;100415.44;;;6.24;75.78
10115;BME280;5097;43.260;27.812;2023-03-03T04:06:39;100413.84;;;6.18;76.66
10115;BME280;5097;43.260;27.812;2023-03-03T04:09:23;100407.19;;;6.08;75.45
10115;BME280;5097;43.260;27.812;2023-03-03T04:12:07;100382.88;;;5.71;76.36
10115;BME280;5097;43.260;27.812;2023-03-03T04:14:51;100403.84;;;6.03;77.06
10115;BME280;5097;43.260;27.812;2023-03-03T04:17:35;100403.97;;;6.27;76.50
10115;BME280;5097;43.260;27.812;2023-03-03T04:20:19;100391.81;;;6.24;76.20
10115;BME280;5097;43.260;27.812;2023-03-03T04:23:04;100396.72;;;6.07;75.60
10115;BME280;5097;43.260;27.812;2023-03-03T04:25:48;100407.09;;;6.11;75.96
10115;BME280;5097;43.260;27.812;2023-03-03T04:28:33;100399.16;;;6.13;76.82
10115;BME280;5097;43.260;27.812;2023-03-03T04:31:17;100405.81;;;6.25;75.87
10115;BME280;5097;43.260;27.812;2023-03-03T04:34:02;100399.06;;;6.16;76.21
10115;BME280;5097;43.260;27.812;2023-03-03T04:36:47;100393.94;;;6.13;75.94
10115;BME280;5097;43.260;27.812;2023-03-03T04:39:33;100392.81;;;6.20;75.95
10115;BME280;5097;43.260;27.812;2023-03-03T04:42:17;100395.28;;;5.96;75.71
10115;BME280;5097;43.260;27.812;2023-03-03T04:45:03;100407.44;;;5.67;76.51
10115;BME280;5097;43.260;27.812;2023-03-03T04:47:48;100401.34;;;5.35;77.60
10115;BME280;5097;43.260;27.812;2023-03-03T04:50:32;100404.34;;;5.53;77.19
10115;BME280;5097;43.260;27.812;2023-03-03T04:53:18;100408.09;;;5.44;77.30
10115;BME280;5097;43.260;27.812;2023-03-03T04:56:03;100405.44;;;5.46;77.51
10115;BME280;5097;43.260;27.812;2023-03-03T04:58:47;100388.47;;;5.26;76.86
10115;BME280;5097;43.260;27.812;2023-03-03T05:01:31;100408.91;;;5.46;77.22
10115;BME280;5097;43.260;27.812;2023-03-03T05:04:16;100381.09;;;5.08;78.11
10115;BME280;5097;43.260;27.812;2023-03-03T05:07:00;100404.13;;;5.29;78.12
10115;BME280;5097;43.260;27.812;2023-03-03T05:09:44;100407.50;;;5.34;76.60
10115;BME280;5097;43.260;27.812;2023-03-03T05:12:29;100414.06;;;5.49;77.26
10115;BME280;5097;43.260;27.812;2023-03-03T05:15:13;100410.50;;;6.13;75.68
10115;BME280;5097;43.260;27.812;2023-03-03T05:17:57;100400.41;;;6.29;75.50
10115;BME280;5097;43.260;27.812;2023-03-03T05:20:41;100414.75;;;6.19;75.20
10115;BME280;5097;43.260;27.812;2023-03-03T05:23:25;100374.31;;;6.25;75.16
10115;BME280;5097;43.260;27.812;2023-03-03T05:26:09;100416.72;;;6.67;74.69
10115;BME280;5097;43.260;27.812;2023-03-03T05:28:54;100403.91;;;6.85;74.43
10115;BME280;5097;43.260;27.812;2023-03-03T05:31:38;100406.03;;;6.99;73.90
10115;BME280;5097;43.260;27.812;2023-03-03T05:34:22;100422.03;;;7.18;73.51
10115;BME280;5097;43.260;27.812;2023-03-03T05:37:06;100420.66;;;6.81;72.48
10115;BME280;5097;43.260;27.812;2023-03-03T05:39:50;100430.47;;;6.76;73.22
10115;BME280;5097;43.260;27.812;2023-03-03T05:42:33;100424.91;;;6.85;73.46
10115;BME280;5097;43.260;27.812;2023-03-03T05:45:19;100406.59;;;6.83;73.83
10115;BME280;5097;43.260;27.812;2023-03-03T05:48:05;100424.63;;;6.39;73.82
10115;BME280;5097;43.260;27.812;2023-03-03T05:50:51;100418.34;;;6.15;74.78
10115;BME280;5097;43.260;27.812;2023-03-03T05:53:35;100415.00;;;5.78;76.59
10115;BME280;5097;43.260;27.812;2023-03-03T05:56:19;100418.09;;;5.93;75.20
10115;BME280;5097;43.260;27.812;2023-03-03T05:59:03;100430.19;;;5.98;75.29
10115;BME280;5097;43.260;27.812;2023-03-03T06:01:49;100423.78;;;6.09;74.87
10115;BME280;5097;43.260;27.812;2023-03-03T06:04:33;100418.53;;;6.09;74.74
10115;BME280;5097;43.260;27.812;2023-03-03T06:07:17;100418.81;;;5.99;75.69
10115;BME280;5097;43.260;27.812;2023-03-03T06:10:02;100418.16;;;6.21;75.38
10115;BME280;5097;43.260;27.812;2023-03-03T06:12:50;100410.72;;;6.35;74.25
10115;BME280;5097;43.260;27.812;2023-03-03T06:15:34;100404.50;;;6.66;74.08
10115;BME280;5097;43.260;27.812;2023-03-03T06:18:19;100412.13;;;7.01;73.81
10115;BME280;5097;43.260;27.812;2023-03-03T06:21:04;100426.00;;;7.04;73.04
10115;BME280;5097;43.260;27.812;2023-03-03T06:23:47;100406.00;;;6.74;72.57
10115;BME280;5097;43.260;27.812;2023-03-03T06:26:31;100411.19;;;6.77;72.90
10115;BME280;5097;43.260;27.812;2023-03-03T06:29:15;100418.53;;;6.65;73.03
10115;BME280;5097;43.260;27.812;2023-03-03T06:31:59;100399.25;;;6.66;73.34
10115;BME280;5097;43.260;27.812;2023-03-03T06:34:45;100423.47;;;6.48;72.56
10115;BME280;5097;43.260;27.812;2023-03-03T06:37:28;100386.91;;;5.83;75.04
10115;BME280;5097;43.260;27.812;2023-03-03T06:40:13;100416.75;;;6.39;74.24
10115;BME280;5097;43.260;27.812;2023-03-03T06:42:57;100425.34;;;6.43;73.80
10115;BME280;5097;43.260;27.812;2023-03-03T06:45:41;100428.13;;;6.66;73.09
10115;BME280;5097;43.260;27.812;2023-03-03T06:48:25;100427.31;;;6.64;73.47
10115;BME280;5097;43.260;27.812;2023-03-03T06:51:21;100428.28;;;6.62;73.03
10115;BME280;5097;43.260;27.812;2023-03-03T06:54:10;100416.50;;;6.74;72.93
10115;BME280;5097;43.260;27.812;2023-03-03T06:56:58;100430.59;;;6.71;73.48
10115;BME280;5097;43.260;27.812;2023-03-03T06:59:43;100358.44;;;6.29;73.20
10115;BME280;5097;43.260;27.812;2023-03-03T07:02:28;100424.66;;;6.93;72.77
10115;BME280;5097;43.260;27.812;2023-03-03T07:05:14;100429.56;;;7.03;72.25
10115;BME280;5097;43.260;27.812;2023-03-03T07:08:00;100431.47;;;6.98;73.00
10115;BME280;5097;43.260;27.812;2023-03-03T07:10:45;100433.38;;;7.20;72.24
10115;BME280;5097;43.260;27.812;2023-03-03T07:13:30;100431.25;;;7.04;71.72
10115;BME280;5097;43.260;27.812;2023-03-03T07:16:16;100416.59;;;7.24;72.56
10115;BME280;5097;43.260;27.812;2023-03-03T07:19:00;100420.44;;;7.64;71.28
10115;BME280;5097;43.260;27.812;2023-03-03T07:21:45;100414.03;;;7.95;71.04
10115;BME280;5097;43.260;27.812;2023-03-03T07:24:30;100415.41;;;8.05;70.08
10115;BME280;5097;43.260;27.812;2023-03-03T07:27:20;100408.19;;;7.87;69.31
10115;BME280;5097;43.260;27.812;2023-03-03T07:30:20;100407.50;;;7.82;70.30
10115;BME280;5097;43.260;27.812;2023-03-03T07:33:18;100394.47;;;8.02;68.99
10115;BME280;5097;43.260;27.812;2023-03-03T07:36:23;100402.94;;;7.87;69.49
10115;BME280;5097;43.260;27.812;2023-03-03T07:39:35;100399.06;;;7.74;68.25
10115;BME280;5097;43.260;27.812;2023-03-03T07:42:23;100399.06;;;7.74;69.61
10115;BME280;5097;43.260;27.812;2023-03-03T07:45:26;100400.38;;;7.36;69.84
10115;BME280;5097;43.260;27.812;2023-03-03T07:48:18;100403.44;;;7.24;70.00
10115;BME280;5097;43.260;27.812;2023-03-03T07:51:12;100401.97;;;7.41;68.79
10115;BME280;5097;43.260;27.812;2023-03-03T07:54:16;100381.63;;;7.22;68.24
10115;BME280;5097;43.260;27.812;2023-03-03T07:57:11;100395.13;;;7.36;66.99
10115;BME280;5097;43.260;27.812;2023-03-03T08:00:01;100389.84;;;7.62;68.29
10115;BME280;5097;43.260;27.812;2023-03-03T08:02:55;100388.06;;;7.86;67.60
10115;BME280;5097;43.260;27.812;2023-03-03T08:05:42;100391.94;;;8.23;67.51
10115;BME280;5097;43.260;27.812;2023-03-03T08:08:28;100392.78;;;8.90;65.73
10115;BME280;5097;43.260;27.812;2023-03-03T08:11:12;100391.13;;;9.68;62.96
10115;BME280;5097;43.260;27.812;2023-03-03T08:13:58;100386.16;;;10.00;61.33
10115;BME280;5097;43.260;27.812;2023-03-03T08:16:42;100389.69;;;10.01;59.40
10115;BME280;5097;43.260;27.812;2023-03-03T08:19:27;100394.28;;;8.96;61.30
10115;BME280;5097;43.260;27.812;2023-03-03T08:22:15;100386.00;;;9.65;61.14
10115;BME280;5097;43.260;27.812;2023-03-03T08:25:00;100370.03;;;10.26;58.04
10115;BME280;5097;43.260;27.812;2023-03-03T08:27:44;100371.19;;;10.01;57.72
10115;BME280;5097;43.260;27.812;2023-03-03T08:30:30;100357.06;;;10.21;59.39
10115;BME280;5097;43.260;27.812;2023-03-03T08:33:15;100379.88;;;10.95;56.96
10115;BME280;5097;43.260;27.812;2023-03-03T08:35:59;100373.22;;;11.72;55.16
10115;BME280;5097;43.260;27.812;2023-03-03T08:38:43;100376.81;;;11.87;55.88
10115;BME280;5097;43.260;27.812;2023-03-03T08:41:27;100376.00;;;11.02;54.88
10115;BME280;5097;43.260;27.812;2023-03-03T08:44:11;100384.31;;;10.02;59.55
10115;BME280;5097;43.260;27.812;2023-03-03T08:46:56;100382.44;;;11.48;55.94
10115;BME280;5097;43.260;27.812;2023-03-03T08:49:40;100376.00;;;11.53;54.92
10115;BME280;5097;43.260;27.812;2023-03-03T08:52:24;100382.00;;;10.52;55.82
10115;BME280;5097;43.260;27.812;2023-03-03T08:55:08;100377.00;;;11.00;55.80
10115;BME280;5097;43.260;27.812;2023-03-03T08:57:54;100381.97;;;11.57;56.58
10115;BME280;5097;43.260;27.812;2023-03-03T09:00:37;100371.78;;;11.83;55.54
10115;BME280;5097;43.260;27.812;2023-03-03T09:03:23;100358.50;;;10.82;64.36
10115;BME280;5097;43.260;27.812;2023-03-03T09:06:08;100379.88;;;11.46;57.57
10115;BME280;5097;43.260;27.812;2023-03-03T09:08:52;100369.09;;;12.00;54.92
10115;BME280;5097;43.260;27.812;2023-03-03T09:11:36;100373.06;;;11.42;55.83
10115;BME280;5097;43.260;27.812;2023-03-03T09:14:20;100372.34;;;11.38;54.81
10115;BME280;5097;43.260;27.812;2023-03-03T09:17:18;100369.75;;;10.86;55.71
10115;BME280;5097;43.260;27.812;2023-03-03T09:20:24;100374.44;;;11.16;57.33
10115;BME280;5097;43.260;27.812;2023-03-03T09:23:40;100361.31;;;11.30;55.02
10115;BME280;5097;43.260;27.812;2023-03-03T09:26:27;100357.59;;;11.17;55.87
10115;BME280;5097;43.260;27.812;2023-03-03T09:29:23;100341.94;;;11.97;53.56
10115;BME280;5097;43.260;27.812;2023-03-03T09:32:20;100342.13;;;11.60;54.34
10115;BME280;5097;43.260;27.812;2023-03-03T09:35:34;100344.44;;;11.66;54.81
10115;BME280;5097;43.260;27.812;2023-03-03T09:38:26;100345.34;;;11.16;55.49
10115;BME280;5097;43.260;27.812;2023-03-03T09:41:30;100335.06;;;12.40;52.82
10115;BME280;5097;43.260;27.812;2023-03-03T09:44:30;100341.25;;;12.86;53.09
10115;BME280;5097;43.260;27.812;2023-03-03T09:47:30;100338.00;;;12.66;51.84
10115;BME280;5097;43.260;27.812;2023-03-03T09:50:27;100336.69;;;12.73;50.66
10115;BME280;5097;43.260;27.812;2023-03-03T09:53:21;100299.03;;;11.90;55.77
10115;BME280;5097;43.260;27.812;2023-03-03T09:56:14;100289.50;;;12.03;54.62
10115;BME280;5097;43.260;27.812;2023-03-03T09:59:11;100319.22;;;12.09;54.17
10115;BME280;5097;43.260;27.812;2023-03-03T10:02:15;100316.66;;;12.84;51.10
10115;BME280;5097;43.260;27.812;2023-03-03T10:05:16;100309.91;;;12.48;50.10
10115;BME280;5097;43.260;27.812;2023-03-03T10:08:16;100303.31;;;12.55;49.65
10115;BME280;5097;43.260;27.812;2023-03-03T10:11:12;100286.41;;;12.11;52.41
10115;BME280;5097;43.260;27.812;2023-03-03T10:14:12;100291.69;;;12.27;51.98
10115;BME280;5097;43.260;27.812;2023-03-03T10:17:25;100290.81;;;13.16;50.62
10115;BME280;5097;43.260;27.812;2023-03-03T10:20:23;100264.53;;;12.07;51.84
10115;BME280;5097;43.260;27.812;2023-03-03T10:23:20;100230.34;;;12.19;51.26
10115;BME280;5097;43.260;27.812;2023-03-03T10:26:15;100287.53;;;12.37;49.90
10115;BME280;5097;43.260;27.812;2023-03-03T10:29:18;100234.25;;;12.87;50.91
10115;BME280;5097;43.260;27.812;2023-03-03T10:32:25;100276.06;;;12.53;48.74
10115;BME280;5097;43.260;27.812;2023-03-03T10:35:22;100284.34;;;12.47;49.32
10115;BME280;5097;43.260;27.812;2023-03-03T10:38:21;100267.47;;;12.64;49.60
10115;BME280;5097;43.260;27.812;2023-03-03T10:41:27;100273.50;;;12.51;50.67
10115;BME280;5097;43.260;27.812;2023-03-03T10:44:25;100254.91;;;12.37;49.58
10115;BME280;5097;43.260;27.812;2023-03-03T10:47:35;100264.38;;;12.71;50.26
10115;BME280;5097;43.260;27.812;2023-03-03T10:50:26;100258.72;;;13.06;47.69
10115;BME280;5097;43.260;27.812;2023-03-03T10:53:23;100261.13;;;12.66;47.37
10115;BME280;5097;43.260;27.812;2023-03-03T10:56:17;100260.50;;;12.91;48.37
10115;BME280;5097;43.260;27.812;2023-03-03T10:59:15;100257.38;;;12.99;48.14
10115;BME280;5097;43.260;27.812;2023-03-03T11:02:13;100256.63;;;13.12;47.27
10115;BME280;5097;43.260;27.812;2023-03-03T11:05:13;100250.34;;;12.69;46.31
10115;BME280;5097;43.260;27.812;2023-03-03T11:08:03;100242.03;;;12.76;48.29
10115;BME280;5097;43.260;27.812;2023-03-03T11:10:59;100223.00;;;11.92;51.06
10115;BME280;5097;43.260;27.812;2023-03-03T11:13:54;100219.09;;;11.83;50.58
10115;BME280;5097;43.260;27.812;2023-03-03T11:16:54;100211.41;;;11.79;51.68
10115;BME280;5097;43.260;27.812;2023-03-03T11:19:51;100206.47;;;11.09;51.58
10115;BME280;5097;43.260;27.812;2023-03-03T11:22:43;100201.03;;;11.60;50.15
10115;BME280;5097;43.260;27.812;2023-03-03T11:25:33;100192.56;;;11.53;49.60
10115;BME280;5097;43.260;27.812;2023-03-03T11:28:36;100188.53;;;10.98;51.34
10115;BME280;5097;43.260;27.812;2023-03-03T11:31:29;100170.47;;;11.54;51.31
10115;BME280;5097;43.260;27.812;2023-03-03T11:34:33;100179.63;;;11.64;51.09
10115;BME280;5097;43.260;27.812;2023-03-03T11:37:22;100161.38;;;11.90;49.79
10115;BME280;5097;43.260;27.812;2023-03-03T11:40:16;100173.94;;;11.70;50.48
10115;BME280;5097;43.260;27.812;2023-03-03T11:43:03;100164.47;;;11.82;50.56
10115;BME280;5097;43.260;27.812;2023-03-03T11:45:56;100181.03;;;12.02;49.57
10115;BME280;5097;43.260;27.812;2023-03-03T11:48:46;100175.53;;;11.89;51.22
10115;BME280;5097;43.260;27.812;2023-03-03T11:51:43;100169.28;;;11.44;53.25
10115;BME280;5097;43.260;27.812;2023-03-03T11:54:33;100161.63;;;11.85;53.94
10115;BME280;5097;43.260;27.812;2023-03-03T11:57:29;100165.31;;;12.44;51.92
10115;BME280;5097;43.260;27.812;2023-03-03T12:00:25;100170.06;;;11.92;52.46
10115;BME280;5097;43.260;27.812;2023-03-03T12:03:20;100165.41;;;11.81;52.39
10115;BME280;5097;43.260;27.812;2023-03-03T12:06:16;100163.63;;;12.12;52.84
10115;BME280;5097;43.260;27.812;2023-03-03T12:09:12;100133.13;;;11.28;53.83
10115;BME280;5097;43.260;27.812;2023-03-03T12:12:05;100169.56;;;11.85;53.20
10115;BME280;5097;43.260;27.812;2023-03-03T12:15:01;100163.38;;;12.17;51.95
10115;BME280;5097;43.260;27.812;2023-03-03T12:18:01;100150.78;;;11.90;52.78
10115;BME280;5097;43.260;27.812;2023-03-03T12:21:02;100158.47;;;11.95;56.32
10115;BME280;5097;43.260;27.812;2023-03-03T12:24:07;100153.03;;;11.82;52.15
10115;BME280;5097;43.260;27.812;2023-03-03T12:27:01;100151.53;;;11.92;57.55
10115;BME280;5097;43.260;27.812;2023-03-03T12:29:54;100156.38;;;12.16;51.97
10115;BME280;5097;43.260;27.812;2023-03-03T12:32:57;100160.88;;;11.99;54.07
10115;BME280;5097;43.260;27.812;2023-03-03T12:35:53;100150.09;;;11.86;54.51
10115;BME280;5097;43.260;27.812;2023-03-03T12:38:48;100134.28;;;11.38;56.79
10115;BME280;5097;43.260;27.812;2023-03-03T12:41:40;100149.84;;;11.91;56.71
10115;BME280;5097;43.260;27.812;2023-03-03T12:44:30;100131.47;;;12.04;53.55
10115;BME280;5097;43.260;27.812;2023-03-03T12:47:24;100153.50;;;12.04;53.13
10115;BME280;5097;43.260;27.812;2023-03-03T12:50:24;100162.78;;;11.65;54.22
10115;BME280;5097;43.260;27.812;2023-03-03T12:53:21;100129.34;;;10.84;57.12
10115;BME280;5097;43.260;27.812;2023-03-03T12:56:08;100160.59;;;11.42;56.24
10115;BME280;5097;43.260;27.812;2023-03-03T12:59:00;100147.88;;;11.95;54.84
10115;BME280;5097;43.260;27.812;2023-03-03T13:02:01;100157.78;;;12.21;53.41
10115;BME280;5097;43.260;27.812;2023-03-03T13:04:55;100162.19;;;12.06;53.76
10115;BME280;5097;43.260;27.812;2023-03-03T13:07:42;100160.88;;;11.99;53.47
10115;BME280;5097;43.260;27.812;2023-03-03T13:10:34;100125.72;;;11.65;54.26
10115;BME280;5097;43.260;27.812;2023-03-03T13:13:26;100153.16;;;11.64;54.47
10115;BME280;5097;43.260;27.812;2023-03-03T13:16:20;100149.41;;;11.20;57.29
10115;BME280;5097;43.260;27.812;2023-03-03T13:19:25;100153.69;;;11.39;56.57
10115;BME280;5097;43.260;27.812;2023-03-03T13:22:12;100147.59;;;11.69;54.61
10115;BME280;5097;43.260;27.812;2023-03-03T13:25:02;100156.97;;;11.58;54.73
10115;BME280;5097;43.260;27.812;2023-03-03T13:27:53;100150.94;;;11.24;56.03
10115;BME280;5097;43.260;27.812;2023-03-03T13:30:42;100152.97;;;11.03;56.47
10115;BME280;5097;43.260;27.812;2023-03-03T13:33:33;100153.09;;;11.34;56.13
10115;BME280;5097;43.260;27.812;2023-03-03T13:36:17;100153.66;;;11.71;54.27
10115;BME280;5097;43.260;27.812;2023-03-03T13:39:09;100142.03;;;11.73;54.73
10115;BME280;5097;43.260;27.812;2023-03-03T13:42:00;100149.13;;;11.57;54.50
10115;BME280;5097;43.260;27.812;2023-03-03T13:44:48;100150.84;;;11.58;54.90
10115;BME280;5097;43.260;27.812;2023-03-03T13:47:39;100145.84;;;11.84;54.05
10115;BME280;5097;43.260;27.812;2023-03-03T13:50:33;100145.97;;;11.50;55.27
10115;BME280;5097;43.260;27.812;2023-03-03T13:53:32;100146.16;;;11.47;54.82
10115;BME280;5097;43.260;27.812;2023-03-03T13:56:34;100141.19;;;10.26;58.15
10115;BME280;5097;43.260;27.812;2023-03-03T13:59:29;100139.03;;;10.17;58.78
10115;BME280;5097;43.260;27.812;2023-03-03T14:02:45;100139.16;;;10.98;56.79
10115;BME280;5097;43.260;27.812;2023-03-03T14:05:35;100136.78;;;11.10;56.61
10115;BME280;5097;43.260;27.812;2023-03-03T14:08:31;100136.53;;;11.30;56.22
10115;BME280;5097;43.260;27.812;2023-03-03T14:11:24;100102.59;;;10.90;57.68
10115;BME280;5097;43.260;27.812;2023-03-03T14:14:19;100125.94;;;10.98;56.85
10115;BME280;5097;43.260;27.812;2023-03-03T14:17:14;100125.41;;;10.60;58.37
10115;BME280;5097;43.260;27.812;2023-03-03T14:20:11;100118.09;;;10.97;57.29
10115;BME280;5097;43.260;27.812;2023-03-03T14:23:00;100142.00;;;10.62;57.13
10115;BME280;5097;43.260;27.812;2023-03-03T14:25:52;100135.84;;;10.28;57.88
10115;BME280;5097;43.260;27.812;2023-03-03T14:28:38;100133.59;;;9.85;59.01
10115;BME280;5097;43.260;27.812;2023-03-03T14:31:25;100135.75;;;9.94;59.20
10115;BME280;5097;43.260;27.812;2023-03-03T14:34:24;100122.88;;;10.05;59.66
10115;BME280;5097;43.260;27.812;2023-03-03T14:37:26;100137.78;;;10.06;59.03
10115;BME280;5097;43.260;27.812;2023-03-03T14:40:16;100138.63;;;10.07;60.66
10115;BME280;5097;43.260;27.812;2023-03-03T14:43:04;100135.84;;;10.45;58.07
10115;BME280;5097;43.260;27.812;2023-03-03T14:46:26;100142.13;;;10.25;58.62
10115;BME280;5097;43.260;27.812;2023-03-03T14:49:14;100143.97;;;9.88;59.91
10115;BME280;5097;43.260;27.812;2023-03-03T14:52:07;100155.16;;;10.11;59.58
10115;BME280;5097;43.260;27.812;2023-03-03T14:54:56;100132.03;;;9.81;59.87